sensor_id;sensor_type;location;lat;lon;timestamp;temperature;humidity
8595;DHT22;4335;48.860;9.198;2023-03-01T00:00:11;0.00;99.90
8595;DHT22;4335;48.860;9.198;2023-03-01T00:02:40;-0.10;99.90
8595;DHT22;4335;48.860;9.198;2023-03-01T00:05:08;-0.10;99.90
8595;DHT22;4335;48.860;9.198;2023-03-01T00:07:35;-0.10;99.90
8595;DHT22;4335;48.860;9.198;2023-03-01T00:10:02;-0.10;99.90
8595;DHT22;4335;48.860;9.198;2023-03-01T00:12:29;-0.20;99.90
8595;DHT22;4335;48.860;9.198;2023-03-01T00:14:55;-0.10;99.90
8595;DHT22;4335;48.860;9.198;2023-03-01T00:17:27;-0.10;99.90
8595;DHT22;4335;48.860;9.198;2023-03-01T00:19:54;-0.10;99.90
8595;DHT22;4335;48.860;9.198;2023-03-01T00:22:22;-0.10;99.90
8595;DHT22;4335;48.860;9.198;2023-03-01T00:24:49;-0.10;99.90
8595;DHT22;4335;48.860;9.198;2023-03-01T00:27:18;-0.10;99.90
8595;DHT22;4335;48.860;9.198;2023-03-01T00:29:51;-0.10;99.90
8595;DHT22;4335;48.860;9.198;2023-03-01T00:32:18;-0.10;99.90
8595;DHT22;4335;48.860;9.198;2023-03-01T00:34:46;-0.10;99.90
8595;DHT22;4335;48.860;9.198;2023-03-01T00:37:24;0.00;99.90
8595;DHT22;4335;48.860;9.198;2023-03-01T00:39:51;0.00;99.90
8595;DHT22;4335;48.860;9.198;2023-03-01T00:42:24;0.00;99.90
8595;DHT22;4335;48.860;9.198;2023-03-01T00:44:50;-0.10;99.90
8595;DHT22;4335;48.860;9.198;2023-03-01T00:47:17;-0.20;99.90
8595;DHT22;4335;48.860;9.198;2023-03-01T00:49:44;-0.20;99.90
8595;DHT22;4335;48.860;9.198;2023-03-01T00:52:10;-0.30;99.90
8595;DHT22;4335;48.860;9.198;2023-03-01T00:54:38;-0.30;99.90
8595;DHT22;4335;48.860;9.198;2023-03-01T00:57:04;-0.30;99.90
8595;DHT22;4335;48.860;9.198;2023-03-01T00:59:31;-0.30;99.90
8595;DHT22;4335;48.860;9.198;2023-03-01T01:01:58;-0.30;99.90
8595;DHT22;4335;48.860;9.198;2023-03-01T01:04:24;-0.40;99.90
8595;DHT22;4335;48.860;9.198;2023-03-01T01:06:54;-0.30;99.90
8595;DHT22;4335;48.860;9.198;2023-03-01T01:09:21;-0.40;99.90
8595;DHT22;4335;48.860;9.198;2023-03-01T01:11:50;-0.50;99.90
8595;DHT22;4335;48.860;9.198;2023-03-01T01:14:18;-0.50;99.90
8595;DHT22;4335;48.860;9.198;2023-03-01T01:16:48;-0.50;99.90
8595;DHT22;4335;48.860;9.198;2023-03-01T01:19:15;-0.60;99.90
8595;DHT22;4335;48.860;9.198;2023-03-01T01:21:42;-0.70;99.90
8595;DHT22;4335;48.860;9.198;2023-03-01T01:24:09;-0.70;99.90
8595;DHT22;4335;48.860;9.198;2023-03-01T01:26:36;-0.60;99.90
8595;DHT22;4335;48.860;9.198;2023-03-01T01:29:04;-0.60;99.90
8595;DHT22;4335;48.860;9.198;2023-03-01T01:31:33;-0.60;99.90
8595;DHT22;4335;48.860;9.198;2023-03-01T01:34:00;-0.60;99.90
8595;DHT22;4335;48.860;9.198;2023-03-01T01:36:31;-0.60;99.90
8595;DHT22;4335;48.860;9.198;2023-03-01T01:39:01;-0.60;99.90
8595;DHT22;4335;48.860;9.198;2023-03-01T01:41:29;-0.60;99.90
8595;DHT22;4335;48.860;9.198;2023-03-01T01:44:17;-0.60;99.90
8595;DHT22;4335;48.860;9.198;2023-03-01T01:46:46;-0.60;99.90
8595;DHT22;4335;48.860;9.198;2023-03-01T01:49:31;-0.60;99.90
8595;DHT22;4335;48.860;9.198;2023-03-01T01:52:04;-0.60;99.90
8595;DHT22;4335;48.860;9.198;2023-03-01T01:54:40;-0.60;99.90
8595;DHT22;4335;48.860;9.198;2023-03-01T01:57:11;-0.70;99.90
8595;DHT22;4335;48.860;9.198;2023-03-01T01:59:41;-0.60;99.90
8595;DHT22;4335;48.860;9.198;2023-03-01T02:02:09;-0.60;99.90
8595;DHT22;4335;48.860;9.198;2023-03-01T02:04:39;-0.60;99.90
8595;DHT22;4335;48.860;9.198;2023-03-01T02:07:13;-0.50;99.90
8595;DHT22;4335;48.860;9.198;2023-03-01T02:09:42;-0.50;99.90
8595;DHT22;4335;48.860;9.198;2023-03-01T02:12:10;-0.50;99.90
8595;DHT22;4335;48.860;9.198;2023-03-01T02:14:37;-0.50;99.90
8595;DHT22;4335;48.860;9.198;2023-03-01T02:17:04;-0.50;99.90
8595;DHT22;4335;48.860;9.198;2023-03-01T02:19:39;-0.40;99.90
8595;DHT22;4335;48.860;9.198;2023-03-01T02:22:16;-0.50;99.90
8595;DHT22;4335;48.860;9.198;2023-03-01T02:24:54;-0.50;99.90
8595;DHT22;4335;48.860;9.198;2023-03-01T02:27:33;-0.50;99.90
8595;DHT22;4335;48.860;9.198;2023-03-01T02:30:10;-0.50;99.90
8595;DHT22;4335;48.860;9.198;2023-03-01T02:32:39;-0.40;99.90
8595;DHT22;4335;48.860;9.198;2023-03-01T02:35:13;-0.40;99.90
8595;DHT22;4335;48.860;9.198;2023-03-01T02:37:41;-0.40;99.90
8595;DHT22;4335;48.860;9.198;2023-03-01T02:40:12;-0.40;99.90
8595;DHT22;4335;48.860;9.198;2023-03-01T02:42:46;-0.40;99.90
8595;DHT22;4335;48.860;9.198;2023-03-01T02:45:17;-0.40;99.90
8595;DHT22;4335;48.860;9.198;2023-03-01T02:47:44;-0.30;99.90
8595;DHT22;4335;48.860;9.198;2023-03-01T02:50:22;-0.30;99.90
8595;DHT22;4335;48.860;9.198;2023-03-01T02:52:57;-0.30;99.90
8595;DHT22;4335;48.860;9.198;2023-03-01T02:55:27;-0.30;99.90
8595;DHT22;4335;48.860;9.198;2023-03-01T02:57:54;-0.30;99.90
8595;DHT22;4335;48.860;9.198;2023-03-01T03:00:24;-0.20;99.90
8595;DHT22;4335;48.860;9.198;2023-03-01T03:02:59;-0.30;99.90
8595;DHT22;4335;48.860;9.198;2023-03-01T03:05:27;-0.20;99.90
8595;DHT22;4335;48.860;9.198;2023-03-01T03:07:54;-0.20;99.90
8595;DHT22;4335;48.860;9.198;2023-03-01T03:10:34;-0.20;99.90
8595;DHT22;4335;48.860;9.198;2023-03-01T03:13:06;-0.30;99.90
8595;DHT22;4335;48.860;9.198;2023-03-01T03:15:34;-0.20;99.90
8595;DHT22;4335;48.860;9.198;2023-03-01T03:18:02;-0.20;99.90
8595;DHT22;4335;48.860;9.198;2023-03-01T03:20:29;-0.20;99.90
8595;DHT22;4335;48.860;9.198;2023-03-01T03:22:57;-0.20;99.90
8595;DHT22;4335;48.860;9.198;2023-03-01T03:25:25;-0.20;99.90
8595;DHT22;4335;48.860;9.198;2023-03-01T03:27:53;-0.20;99.90
8595;DHT22;4335;48.860;9.198;2023-03-01T03:30:23;-0.20;99.90
8595;DHT22;4335;48.860;9.198;2023-03-01T03:32:53;-0.10;99.90
8595;DHT22;4335;48.860;9.198;2023-03-01T03:35:21;-0.20;99.90
8595;DHT22;4335;48.860;9.198;2023-03-01T03:37:49;-0.20;99.90
8595;DHT22;4335;48.860;9.198;2023-03-01T03:40:32;-0.10;99.90
8595;DHT22;4335;48.860;9.198;2023-03-01T03:43:02;-0.20;99.90
8595;DHT22;4335;48.860;9.198;2023-03-01T03:45:30;-0.20;99.90
8595;DHT22;4335;48.860;9.198;2023-03-01T03:48:02;-0.20;99.90
8595;DHT22;4335;48.860;9.198;2023-03-01T03:50:30;-0.10;99.90
8595;DHT22;4335;48.860;9.198;2023-03-01T03:52:59;-0.10;99.90
8595;DHT22;4335;48.860;9.198;2023-03-01T03:55:26;-0.10;99.90
8595;DHT22;4335;48.860;9.198;2023-03-01T03:57:59;0.00;99.90
8595;DHT22;4335;48.860;9.198;2023-03-01T04:00:28;0.00;99.90
8595;DHT22;4335;48.860;9.198;2023-03-01T04:02:55;0.00;99.90
8595;DHT22;4335;48.860;9.198;2023-03-01T04:05:23;0.00;99.90
8595;DHT22;4335;48.860;9.198;2023-03-01T04:07:49;0.10;99.90
8595;DHT22;4335;48.860;9.198;2023-03-01T04:10:27;0.10;99.90
8595;DHT22;4335;48.860;9.198;2023-03-01T04:12:54;0.00;99.90
8595;DHT22;4335;48.860;9.198;2023-03-01T04:15:23;0.00;99.90
8595;DHT22;4335;48.860;9.198;2023-03-01T04:17:52;0.00;99.90
8595;DHT22;4335;48.860;9.198;2023-03-01T04:20:21;0.00;99.90
8595;DHT22;4335;48.860;9.198;2023-03-01T04:22:52;0.00;99.90
8595;DHT22;4335;48.860;9.198;2023-03-01T04:25:19;0.00;99.90
8595;DHT22;4335;48.860;9.198;2023-03-01T04:27:45;0.00;99.90
8595;DHT22;4335;48.860;9.198;2023-03-01T04:30:15;0.00;99.90
8595;DHT22;4335;48.860;9.198;2023-03-01T04:32:42;0.00;99.90
8595;DHT22;4335;48.860;9.198;2023-03-01T04:35:09;0.00;99.90
8595;DHT22;4335;48.860;9.198;2023-03-01T04:37:39;0.00;99.90
8595;DHT22;4335;48.860;9.198;2023-03-01T04:40:09;0.00;99.90
8595;DHT22;4335;48.860;9.198;2023-03-01T04:42:41;0.00;99.90
8595;DHT22;4335;48.860;9.198;2023-03-01T04:45:09;0.00;99.90
8595;DHT22;4335;48.860;9.198;2023-03-01T04:47:39;0.10;99.90
8595;DHT22;4335;48.860;9.198;2023-03-01T04:50:10;0.00;99.90
8595;DHT22;4335;48.860;9.198;2023-03-01T04:52:40;0.00;99.90
8595;DHT22;4335;48.860;9.198;2023-03-01T04:55:09;0.00;99.90
8595;DHT22;4335;48.860;9.198;2023-03-01T04:57:36;0.10;99.90
8595;DHT22;4335;48.860;9.198;2023-03-01T05:00:04;0.10;99.90
8595;DHT22;4335;48.860;9.198;2023-03-01T05:02:53;0.10;99.90
8595;DHT22;4335;48.860;9.198;2023-03-01T05:05:25;0.20;99.90
8595;DHT22;4335;48.860;9.198;2023-03-01T05:07:54;0.10;99.90
8595;DHT22;4335;48.860;9.198;2023-03-01T05:10:25;0.10;99.90
8595;DHT22;4335;48.860;9.198;2023-03-01T05:12:52;0.10;99.90
8595;DHT22;4335;48.860;9.198;2023-03-01T05:15:19;0.10;99.90
8595;DHT22;4335;48.860;9.198;2023-03-01T05:17:47;0.00;99.90
8595;DHT22;4335;48.860;9.198;2023-03-01T05:20:17;0.00;99.90
8595;DHT22;4335;48.860;9.198;2023-03-01T05:22:52;0.00;99.90
8595;DHT22;4335;48.860;9.198;2023-03-01T05:25:29;0.00;99.90
8595;DHT22;4335;48.860;9.198;2023-03-01T05:27:58;0.00;99.90
8595;DHT22;4335;48.860;9.198;2023-03-01T05:30:29;0.00;99.90
8595;DHT22;4335;48.860;9.198;2023-03-01T05:33:01;0.00;99.90
8595;DHT22;4335;48.860;9.198;2023-03-01T05:35:28;0.10;99.90
8595;DHT22;4335;48.860;9.198;2023-03-01T05:37:58;0.10;99.90
8595;DHT22;4335;48.860;9.198;2023-03-01T05:40:29;0.10;99.90
8595;DHT22;4335;48.860;9.198;2023-03-01T05:43:01;0.10;99.90
8595;DHT22;4335;48.860;9.198;2023-03-01T05:45:31;0.10;99.90
8595;DHT22;4335;48.860;9.198;2023-03-01T05:47:58;0.10;99.90
8595;DHT22;4335;48.860;9.198;2023-03-01T05:50:26;0.20;99.90
8595;DHT22;4335;48.860;9.198;2023-03-01T05:52:59;0.20;99.90
8595;DHT22;4335;48.860;9.198;2023-03-01T05:55:30;0.20;99.90
8595;DHT22;4335;48.860;9.198;2023-03-01T05:58:06;0.20;99.90
8595;DHT22;4335;48.860;9.198;2023-03-01T06:00:34;0.20;99.90
8595;DHT22;4335;48.860;9.198;2023-03-01T06:03:03;0.20;99.90
8595;DHT22;4335;48.860;9.198;2023-03-01T06:05:30;0.10;99.90
8595;DHT22;4335;48.860;9.198;2023-03-01T06:07:59;0.20;99.90
8595;DHT22;4335;48.860;9.198;2023-03-01T06:10:26;0.20;99.90
8595;DHT22;4335;48.860;9.198;2023-03-01T06:12:54;0.20;99.90
8595;DHT22;4335;48.860;9.198;2023-03-01T06:15:23;0.20;99.90
8595;DHT22;4335;48.860;9.198;2023-03-01T06:17:52;0.20;99.90
8595;DHT22;4335;48.860;9.198;2023-03-01T06:20:22;0.30;99.90
8595;DHT22;4335;48.860;9.198;2023-03-01T06:22:49;0.40;99.90
8595;DHT22;4335;48.860;9.198;2023-03-01T06:25:18;0.50;99.90
8595;DHT22;4335;48.860;9.198;2023-03-01T06:27:45;0.70;99.90
8595;DHT22;4335;48.860;9.198;2023-03-01T06:30:15;0.90;99.90
8595;DHT22;4335;48.860;9.198;2023-03-01T06:32:46;1.00;99.90
8595;DHT22;4335;48.860;9.198;2023-03-01T06:35:14;0.90;99.90
8595;DHT22;4335;48.860;9.198;2023-03-01T06:37:46;0.80;99.90
8595;DHT22;4335;48.860;9.198;2023-03-01T06:40:14;0.70;99.90
8595;DHT22;4335;48.860;9.198;2023-03-01T06:42:43;0.50;99.90
8595;DHT22;4335;48.860;9.198;2023-03-01T06:45:10;0.50;99.90
8595;DHT22;4335;48.860;9.198;2023-03-01T06:47:38;0.40;99.90
8595;DHT22;4335;48.860;9.198;2023-03-01T06:50:05;0.50;99.90
8595;DHT22;4335;48.860;9.198;2023-03-01T06:52:32;0.40;99.90
8595;DHT22;4335;48.860;9.198;2023-03-01T06:55:01;0.40;99.90
8595;DHT22;4335;48.860;9.198;2023-03-01T06:57:28;0.30;99.90
8595;DHT22;4335;48.860;9.198;2023-03-01T06:59:55;0.40;99.90
8595;DHT22;4335;48.860;9.198;2023-03-01T07:02:21;0.40;99.90
8595;DHT22;4335;48.860;9.198;2023-03-01T07:04:50;0.40;99.90
8595;DHT22;4335;48.860;9.198;2023-03-01T07:07:17;0.40;99.90
8595;DHT22;4335;48.860;9.198;2023-03-01T07:09:44;0.50;99.90
8595;DHT22;4335;48.860;9.198;2023-03-01T07:12:11;0.40;99.90
8595;DHT22;4335;48.860;9.198;2023-03-01T07:14:37;0.50;99.90
8595;DHT22;4335;48.860;9.198;2023-03-01T07:17:07;0.40;99.90
8595;DHT22;4335;48.860;9.198;2023-03-01T07:19:34;0.40;99.90
8595;DHT22;4335;48.860;9.198;2023-03-01T07:22:04;0.30;99.90
8595;DHT22;4335;48.860;9.198;2023-03-01T07:24:33;0.40;99.90
8595;DHT22;4335;48.860;9.198;2023-03-01T07:27:00;0.40;99.90
8595;DHT22;4335;48.860;9.198;2023-03-01T07:29:27;0.30;99.90
8595;DHT22;4335;48.860;9.198;2023-03-01T07:31:54;0.40;99.90
8595;DHT22;4335;48.860;9.198;2023-03-01T07:34:27;0.40;99.90
8595;DHT22;4335;48.860;9.198;2023-03-01T07:36:53;0.50;99.90
8595;DHT22;4335;48.860;9.198;2023-03-01T07:39:21;0.50;99.90
8595;DHT22;4335;48.860;9.198;2023-03-01T07:41:49;0.50;99.90
8595;DHT22;4335;48.860;9.198;2023-03-01T07:44:18;0.50;99.90
8595;DHT22;4335;48.860;9.198;2023-03-01T07:46:45;0.50;99.90
8595;DHT22;4335;48.860;9.198;2023-03-01T07:49:12;0.60;99.90
8595;DHT22;4335;48.860;9.198;2023-03-01T07:51:39;0.60;99.90
8595;DHT22;4335;48.860;9.198;2023-03-01T07:54:08;0.60;99.90
8595;DHT22;4335;48.860;9.198;2023-03-01T07:56:39;0.60;99.90
8595;DHT22;4335;48.860;9.198;2023-03-01T07:59:06;0.50;99.90
8595;DHT22;4335;48.860;9.198;2023-03-01T08:01:33;0.40;99.90
8595;DHT22;4335;48.860;9.198;2023-03-01T08:04:02;0.40;99.90
8595;DHT22;4335;48.860;9.198;2023-03-01T08:06:30;0.50;99.90
8595;DHT22;4335;48.860;9.198;2023-03-01T08:08:57;0.50;99.90
8595;DHT22;4335;48.860;9.198;2023-03-01T08:11:24;0.50;99.90
8595;DHT22;4335;48.860;9.198;2023-03-01T08:13:51;0.60;99.90
8595;DHT22;4335;48.860;9.198;2023-03-01T08:16:18;0.60;99.90
8595;DHT22;4335;48.860;9.198;2023-03-01T08:18:44;0.60;99.90
8595;DHT22;4335;48.860;9.198;2023-03-01T08:21:13;0.70;99.90
8595;DHT22;4335;48.860;9.198;2023-03-01T08:23:41;0.80;99.90
8595;DHT22;4335;48.860;9.198;2023-03-01T08:26:13;0.80;99.90
8595;DHT22;4335;48.860;9.198;2023-03-01T08:28:43;0.80;99.90
8595;DHT22;4335;48.860;9.198;2023-03-01T08:31:18;0.90;99.90
8595;DHT22;4335;48.860;9.198;2023-03-01T08:33:45;0.90;99.90
8595;DHT22;4335;48.860;9.198;2023-03-01T08:36:16;1.00;99.90
8595;DHT22;4335;48.860;9.198;2023-03-01T08:38:43;0.90;99.90
8595;DHT22;4335;48.860;9.198;2023-03-01T08:41:09;1.00;99.90
8595;DHT22;4335;48.860;9.198;2023-03-01T08:43:36;1.00;99.90
8595;DHT22;4335;48.860;9.198;2023-03-01T08:46:06;1.10;99.90
8595;DHT22;4335;48.860;9.198;2023-03-01T08:48:36;1.10;99.90
8595;DHT22;4335;48.860;9.198;2023-03-01T08:51:19;1.20;99.90
8595;DHT22;4335;48.860;9.198;2023-03-01T08:53:46;1.30;99.90
8595;DHT22;4335;48.860;9.198;2023-03-01T08:56:13;1.30;99.90
8595;DHT22;4335;48.860;9.198;2023-03-01T08:58:44;1.40;99.90
8595;DHT22;4335;48.860;9.198;2023-03-01T09:01:12;1.40;99.90
8595;DHT22;4335;48.860;9.198;2023-03-01T09:03:40;1.30;99.90
8595;DHT22;4335;48.860;9.198;2023-03-01T09:06:08;1.40;99.90
8595;DHT22;4335;48.860;9.198;2023-03-01T09:08:42;1.40;99.90
8595;DHT22;4335;48.860;9.198;2023-03-01T09:11:11;1.40;99.90
8595;DHT22;4335;48.860;9.198;2023-03-01T09:13:38;1.40;99.90
8595;DHT22;4335;48.860;9.198;2023-03-01T09:16:06;1.50;99.90
8595;DHT22;4335;48.860;9.198;2023-03-01T09:18:34;1.50;99.90
8595;DHT22;4335;48.860;9.198;2023-03-01T09:21:09;1.50;99.90
8595;DHT22;4335;48.860;9.198;2023-03-01T09:23:37;1.60;99.90
8595;DHT22;4335;48.860;9.198;2023-03-01T09:26:05;1.70;99.90
8595;DHT22;4335;48.860;9.198;2023-03-01T09:28:32;1.80;99.90
8595;DHT22;4335;48.860;9.198;2023-03-01T09:30:58;1.90;99.90
8595;DHT22;4335;48.860;9.198;2023-03-01T09:33:25;1.90;99.90
8595;DHT22;4335;48.860;9.198;2023-03-01T09:35:56;2.00;99.90
8595;DHT22;4335;48.860;9.198;2023-03-01T09:38:26;2.00;99.90
8595;DHT22;4335;48.860;9.198;2023-03-01T09:40:53;2.00;99.90
8595;DHT22;4335;48.860;9.198;2023-03-01T09:43:26;2.00;99.90
8595;DHT22;4335;48.860;9.198;2023-03-01T09:45:55;2.10;99.90
8595;DHT22;4335;48.860;9.198;2023-03-01T09:48:27;2.20;99.90
8595;DHT22;4335;48.860;9.198;2023-03-01T09:50:55;2.20;99.90
8595;DHT22;4335;48.860;9.198;2023-03-01T09:53:31;2.20;99.90
8595;DHT22;4335;48.860;9.198;2023-03-01T09:56:10;2.40;99.90
8595;DHT22;4335;48.860;9.198;2023-03-01T09:58:49;2.50;99.90
8595;DHT22;4335;48.860;9.198;2023-03-01T10:01:35;2.60;99.90
8595;DHT22;4335;48.860;9.198;2023-03-01T10:04:28;2.60;99.90
8595;DHT22;4335;48.860;9.198;2023-03-01T10:07:11;2.60;99.90
8595;DHT22;4335;48.860;9.198;2023-03-01T10:09:40;2.70;99.90
8595;DHT22;4335;48.860;9.198;2023-03-01T10:12:11;2.80;99.90
8595;DHT22;4335;48.860;9.198;2023-03-01T10:14:49;2.90;99.90
8595;DHT22;4335;48.860;9.198;2023-03-01T10:17:26;3.40;99.90
8595;DHT22;4335;48.860;9.198;2023-03-01T10:19:58;5.30;99.90
8595;DHT22;4335;48.860;9.198;2023-03-01T10:22:36;7.60;99.90
8595;DHT22;4335;48.860;9.198;2023-03-01T10:25:04;10.10;99.90
8595;DHT22;4335;48.860;9.198;2023-03-01T10:27:38;11.90;95.10
8595;DHT22;4335;48.860;9.198;2023-03-01T10:30:16;13.50;90.90
8595;DHT22;4335;48.860;9.198;2023-03-01T10:32:43;14.80;80.40
8595;DHT22;4335;48.860;9.198;2023-03-01T10:35:21;16.00;72.10
8595;DHT22;4335;48.860;9.198;2023-03-01T10:37:59;17.00;65.10
8595;DHT22;4335;48.860;9.198;2023-03-01T10:40:29;16.60;61.60
8595;DHT22;4335;48.860;9.198;2023-03-01T10:42:58;17.30;59.90
8595;DHT22;4335;48.860;9.198;2023-03-01T10:45:34;18.40;56.50
8595;DHT22;4335;48.860;9.198;2023-03-01T10:48:21;18.60;55.00
8595;DHT22;4335;48.860;9.198;2023-03-01T10:51:04;18.00;53.60
8595;DHT22;4335;48.860;9.198;2023-03-01T10:53:34;17.70;53.40
8595;DHT22;4335;48.860;9.198;2023-03-01T10:56:07;17.70;52.50
8595;DHT22;4335;48.860;9.198;2023-03-01T10:58:38;17.90;52.80
8595;DHT22;4335;48.860;9.198;2023-03-01T11:01:23;18.10;51.40
8595;DHT22;4335;48.860;9.198;2023-03-01T11:04:10;18.00;50.80
8595;DHT22;4335;48.860;9.198;2023-03-01T11:06:41;17.80;49.70
8595;DHT22;4335;48.860;9.198;2023-03-01T11:09:18;17.50;49.30
8595;DHT22;4335;48.860;9.198;2023-03-01T11:11:53;16.80;50.40
8595;DHT22;4335;48.860;9.198;2023-03-01T11:14:22;16.20;50.80
8595;DHT22;4335;48.860;9.198;2023-03-01T11:16:58;14.90;52.50
8595;DHT22;4335;48.860;9.198;2023-03-01T11:19:28;14.30;53.50
8595;DHT22;4335;48.860;9.198;2023-03-01T11:22:02;12.70;56.10
8595;DHT22;4335;48.860;9.198;2023-03-01T11:24:34;11.20;58.90
8595;DHT22;4335;48.860;9.198;2023-03-01T11:27:16;10.70;61.80
8595;DHT22;4335;48.860;9.198;2023-03-01T11:29:45;10.10;63.80
8595;DHT22;4335;48.860;9.198;2023-03-01T11:32:15;8.80;69.10
8595;DHT22;4335;48.860;9.198;2023-03-01T11:34:45;8.00;74.60
8595;DHT22;4335;48.860;9.198;2023-03-01T11:37:22;7.50;79.40
8595;DHT22;4335;48.860;9.198;2023-03-01T11:39:56;7.20;84.90
8595;DHT22;4335;48.860;9.198;2023-03-01T11:42:39;6.90;89.80
8595;DHT22;4335;48.860;9.198;2023-03-01T11:45:10;6.70;92.10
8595;DHT22;4335;48.860;9.198;2023-03-01T11:47:55;6.60;93.50
8595;DHT22;4335;48.860;9.198;2023-03-01T11:50:35;6.40;95.40
8595;DHT22;4335;48.860;9.198;2023-03-01T11:53:21;6.20;96.90
8595;DHT22;4335;48.860;9.198;2023-03-01T11:56:02;6.20;98.20
8595;DHT22;4335;48.860;9.198;2023-03-01T11:58:56;6.00;99.50
8595;DHT22;4335;48.860;9.198;2023-03-01T12:01:40;6.00;99.90
8595;DHT22;4335;48.860;9.198;2023-03-01T12:07:22;5.90;99.90
8595;DHT22;4335;48.860;9.198;2023-03-01T12:10:13;5.80;99.90
8595;DHT22;4335;48.860;9.198;2023-03-01T12:13:02;5.80;99.90
8595;DHT22;4335;48.860;9.198;2023-03-01T12:15:47;5.80;99.90
8595;DHT22;4335;48.860;9.198;2023-03-01T12:21:25;5.80;99.90
8595;DHT22;4335;48.860;9.198;2023-03-01T12:24:31;5.80;99.90
8595;DHT22;4335;48.860;9.198;2023-03-01T12:27:27;5.80;99.90
8595;DHT22;4335;48.860;9.198;2023-03-01T12:30:02;5.90;99.90
8595;DHT22;4335;48.860;9.198;2023-03-01T12:32:47;5.80;99.90
8595;DHT22;4335;48.860;9.198;2023-03-01T12:35:47;6.00;99.90
8595;DHT22;4335;48.860;9.198;2023-03-01T12:38:32;6.00;99.90
8595;DHT22;4335;48.860;9.198;2023-03-01T12:41:27;6.00;99.90
8595;DHT22;4335;48.860;9.198;2023-03-01T12:44:11;6.00;99.90
8595;DHT22;4335;48.860;9.198;2023-03-01T12:46:52;6.10;99.90
8595;DHT22;4335;48.860;9.198;2023-03-01T12:49:28;6.10;99.90
8595;DHT22;4335;48.860;9.198;2023-03-01T12:52:00;6.20;99.90
8595;DHT22;4335;48.860;9.198;2023-03-01T12:54:33;6.30;99.90
8595;DHT22;4335;48.860;9.198;2023-03-01T12:57:12;6.30;99.90
8595;DHT22;4335;48.860;9.198;2023-03-01T12:59:50;6.40;99.90
8595;DHT22;4335;48.860;9.198;2023-03-01T13:02:23;6.40;99.90
8595;DHT22;4335;48.860;9.198;2023-03-01T13:05:05;6.30;99.90
8595;DHT22;4335;48.860;9.198;2023-03-01T13:07:36;6.40;99.90
8595;DHT22;4335;48.860;9.198;2023-03-01T13:10:16;6.40;99.90
8595;DHT22;4335;48.860;9.198;2023-03-01T13:12:53;6.40;99.90
8595;DHT22;4335;48.860;9.198;2023-03-01T13:15:44;6.30;99.90
8595;DHT22;4335;48.860;9.198;2023-03-01T13:18:30;6.30;99.90
8595;DHT22;4335;48.860;9.198;2023-03-01T13:21:07;6.40;99.90
8595;DHT22;4335;48.860;9.198;2023-03-01T13:23:38;6.40;99.90
8595;DHT22;4335;48.860;9.198;2023-03-01T13:26:14;6.40;99.90
8595;DHT22;4335;48.860;9.198;2023-03-01T13:28:49;6.40;99.90
8595;DHT22;4335;48.860;9.198;2023-03-01T13:34:56;6.50;99.90
8595;DHT22;4335;48.860;9.198;2023-03-01T13:37:37;6.60;99.90
8595;DHT22;4335;48.860;9.198;2023-03-01T13:43:27;6.60;99.90
8595;DHT22;4335;48.860;9.198;2023-03-01T13:45:55;6.60;99.90
8595;DHT22;4335;48.860;9.198;2023-03-01T13:48:28;6.60;99.90
8595;DHT22;4335;48.860;9.198;2023-03-01T13:50:58;6.50;99.90
8595;DHT22;4335;48.860;9.198;2023-03-01T13:53:33;6.50;99.90
8595;DHT22;4335;48.860;9.198;2023-03-01T13:56:03;6.60;99.90
8595;DHT22;4335;48.860;9.198;2023-03-01T13:58:49;6.60;99.90
8595;DHT22;4335;48.860;9.198;2023-03-01T14:01:28;6.60;99.90
8595;DHT22;4335;48.860;9.198;2023-03-01T14:03:56;6.60;99.90
8595;DHT22;4335;48.860;9.198;2023-03-01T14:06:25;6.60;99.90
8595;DHT22;4335;48.860;9.198;2023-03-01T14:09:04;6.60;99.90
8595;DHT22;4335;48.860;9.198;2023-03-01T14:12:02;6.60;99.90
8595;DHT22;4335;48.860;9.198;2023-03-01T14:14:42;6.50;99.90
8595;DHT22;4335;48.860;9.198;2023-03-01T14:20:18;6.60;99.90
8595;DHT22;4335;48.860;9.198;2023-03-01T14:22:46;6.60;99.90
8595;DHT22;4335;48.860;9.198;2023-03-01T14:25:23;6.60;99.90
8595;DHT22;4335;48.860;9.198;2023-03-01T14:27:54;6.60;99.90
8595;DHT22;4335;48.860;9.198;2023-03-01T14:30:24;6.60;99.90
8595;DHT22;4335;48.860;9.198;2023-03-01T14:32:56;6.60;99.90
8595;DHT22;4335;48.860;9.198;2023-03-01T14:35:25;6.60;99.90
8595;DHT22;4335;48.860;9.198;2023-03-01T14:37:52;6.60;99.90
8595;DHT22;4335;48.860;9.198;2023-03-01T14:40:27;6.60;99.90
8595;DHT22;4335;48.860;9.198;2023-03-01T14:42:56;6.70;99.90
8595;DHT22;4335;48.860;9.198;2023-03-01T14:45:32;6.70;99.90
8595;DHT22;4335;48.860;9.198;2023-03-01T14:48:02;6.70;99.90
8595;DHT22;4335;48.860;9.198;2023-03-01T14:50:31;6.70;99.90
8595;DHT22;4335;48.860;9.198;2023-03-01T14:53:00;6.70;99.90
8595;DHT22;4335;48.860;9.198;2023-03-01T14:55:30;6.70;99.90
8595;DHT22;4335;48.860;9.198;2023-03-01T14:57:57;6.60;99.90
8595;DHT22;4335;48.860;9.198;2023-03-01T15:00:26;6.60;99.90
8595;DHT22;4335;48.860;9.198;2023-03-01T15:02:55;6.60;99.90
8595;DHT22;4335;48.860;9.198;2023-03-01T15:05:30;6.60;99.90
8595;DHT22;4335;48.860;9.198;2023-03-01T15:07:58;6.60;99.90
8595;DHT22;4335;48.860;9.198;2023-03-01T15:10:29;6.60;99.90
8595;DHT22;4335;48.860;9.198;2023-03-01T15:12:58;6.60;99.90
8595;DHT22;4335;48.860;9.198;2023-03-01T15:15:50;6.60;99.90
8595;DHT22;4335;48.860;9.198;2023-03-01T15:18:19;6.60;99.90
8595;DHT22;4335;48.860;9.198;2023-03-01T15:20:47;6.60;99.90
8595;DHT22;4335;48.860;9.198;2023-03-01T15:23:21;6.70;99.90
8595;DHT22;4335;48.860;9.198;2023-03-01T15:25:50;6.70;99.90
8595;DHT22;4335;48.860;9.198;2023-03-01T15:28:27;6.70;99.90
8595;DHT22;4335;48.860;9.198;2023-03-01T15:31:11;6.60;99.90
8595;DHT22;4335;48.860;9.198;2023-03-01T15:33:41;6.60;99.90
8595;DHT22;4335;48.860;9.198;2023-03-01T15:36:37;6.60;99.90
8595;DHT22;4335;48.860;9.198;2023-03-01T15:39:05;6.60;99.90
8595;DHT22;4335;48.860;9.198;2023-03-01T15:41:50;6.60;99.90
8595;DHT22;4335;48.860;9.198;2023-03-01T15:44:25;6.50;99.90
8595;DHT22;4335;48.860;9.198;2023-03-01T15:46:52;6.60;99.90
8595;DHT22;4335;48.860;9.198;2023-03-01T15:49:34;6.60;99.90
8595;DHT22;4335;48.860;9.198;2023-03-01T15:52:06;6.60;99.90
8595;DHT22;4335;48.860;9.198;2023-03-01T15:54:36;6.60;99.90
8595;DHT22;4335;48.860;9.198;2023-03-01T15:57:12;6.60;99.90
8595;DHT22;4335;48.860;9.198;2023-03-01T15:59:39;6.70;99.90
8595;DHT22;4335;48.860;9.198;2023-03-01T16:02:09;6.60;99.90
8595;DHT22;4335;48.860;9.198;2023-03-01T16:04:36;6.60;99.90
8595;DHT22;4335;48.860;9.198;2023-03-01T16:07:06;6.70;99.90
8595;DHT22;4335;48.860;9.198;2023-03-01T16:09:33;6.70;99.90
8595;DHT22;4335;48.860;9.198;2023-03-01T16:12:00;6.60;99.90
8595;DHT22;4335;48.860;9.198;2023-03-01T16:14:31;6.60;99.90
8595;DHT22;4335;48.860;9.198;2023-03-01T16:17:03;6.60;99.90
8595;DHT22;4335;48.860;9.198;2023-03-01T16:19:30;6.50;99.90
8595;DHT22;4335;48.860;9.198;2023-03-01T16:21:56;6.50;99.90
8595;DHT22;4335;48.860;9.198;2023-03-01T16:24:29;6.40;99.90
8595;DHT22;4335;48.860;9.198;2023-03-01T16:26:56;6.40;99.90
8595;DHT22;4335;48.860;9.198;2023-03-01T16:29:23;6.30;99.90
8595;DHT22;4335;48.860;9.198;2023-03-01T16:31:50;6.40;99.90
8595;DHT22;4335;48.860;9.198;2023-03-01T16:34:16;6.30;99.90
8595;DHT22;4335;48.860;9.198;2023-03-01T16:36:43;6.20;99.90
8595;DHT22;4335;48.860;9.198;2023-03-01T16:39:10;6.20;99.90
8595;DHT22;4335;48.860;9.198;2023-03-01T16:41:45;6.20;99.90
8595;DHT22;4335;48.860;9.198;2023-03-01T16:44:14;6.20;99.90
8595;DHT22;4335;48.860;9.198;2023-03-01T16:46:49;6.10;99.90
8595;DHT22;4335;48.860;9.198;2023-03-01T16:49:16;6.10;99.90
8595;DHT22;4335;48.860;9.198;2023-03-01T16:51:49;6.10;99.90
8595;DHT22;4335;48.860;9.198;2023-03-01T16:54:16;6.10;99.90
8595;DHT22;4335;48.860;9.198;2023-03-01T16:56:45;6.00;99.90